Ville-Marie, Canada
Current Conditions -  °F | °C
As of 6:00 PM on Tuesday 21 Oct 2014 (Local Time) from CYXR Reporting Station
Clear Clear  
Wind Chill: 30°   Ceiling: Unl
Heat Index: 37°   Visibility: 9mi
Dew Point: 30°   Wind: 12mph
Humidity: 75%   Direction: 10°N
Pressure: 30.27"   Gusts: NA
Location:  47.33°N, 79.43°W
Report Text: CYXR 212200Z AUTO 01010KT 9SM CLR 03/M01 A3027 RMK SLP262
Loading
Personal Weather Stations






























Interactive Weather Map
Tropical Storm Tracking
New forecast layout! Learn more

10-Day Weather Forecast

Advertisements
Track Severe Weather on mobile